Time,TemperatureF,DewpointF,PressureIn,WindDirection,WindDirectionDegrees,WindSpeedMPH,WindSpeedGustMPH,Humidity,HourlyPrecipIn,Conditions,Clouds,dailyrainin,SoftwareType,DateUTC
2013-08-22 00:23:00,75.0,67.0,30.00,WNW,292,0.0,1.0,75,0.00,,,0.00,,2013-08-22 04:23:00,
2013-08-22 00:54:00,75.0,66.0,29.99,West,270,0.0,8.0,74,0.00,,,0.00,,2013-08-22 04:54:00,
2013-08-22 01:22:00,75.0,67.0,30.01,West,271,1.0,2.0,76,0.00,,,0.00,,2013-08-22 05:22:00,
2013-08-22 01:52:00,74.0,66.0,30.02,West,272,0.0,1.0,77,0.00,,,0.00,,2013-08-22 05:52:00,
2013-08-22 02:22:00,72.0,68.0,30.09,NW,313,2.0,13.0,88,0.01,,,0.01,,2013-08-22 06:22:00,
2013-08-22 02:52:00,68.0,66.0,30.07,NE,48,1.0,6.0,94,0.01,,,0.01,,2013-08-22 06:52:00,
2013-08-22 03:22:00,67.0,66.0,30.06,ENE,78,0.0,2.0,95,0.00,,,0.01,,2013-08-22 07:22:00,
2013-08-22 03:53:00,67.0,66.0,30.03,SSE,165,2.0,4.0,97,0.00,,,0.01,,2013-08-22 07:53:00,
2013-08-22 04:22:00,66.0,65.0,30.00,SSW,212,0.0,9.0,97,0.00,,,0.01,,2013-08-22 08:22:00,
2013-08-22 04:53:00,66.0,65.0,29.99,SSW,210,0.0,1.0,97,0.00,,,0.01,,2013-08-22 08:53:00,
2013-08-22 05:22:00,66.0,65.0,29.98,SSW,210,0.0,0.0,98,0.00,,,0.01,,2013-08-22 09:22:00,
2013-08-22 05:54:00,66.0,66.0,30.00,SSW,210,0.0,0.0,99,0.00,,,0.01,,2013-08-22 09:54:00,
2013-08-22 06:23:00,66.0,66.0,29.98,SSW,210,0.0,0.0,99,0.00,,,0.01,,2013-08-22 10:23:00,
2013-08-22 06:33:00,66.0,66.0,30.00,WSW,250,0.0,1.0,99,0.00,,,0.01,,2013-08-22 10:33:00,
2013-08-22 08:52:00,69.0,69.0,30.01,WNW,292,0.0,4.0,99,0.00,,,0.01,,2013-08-22 12:52:00,
2013-08-22 09:22:00,70.0,69.0,30.01,West,277,1.0,6.0,98,0.00,,,0.01,,2013-08-22 13:22:00,
2013-08-22 09:52:00,71.0,70.0,30.01,WNW,299,1.0,10.0,97,0.00,,,0.01,,2013-08-22 13:52:00,
2013-08-22 10:02:00,71.0,70.0,30.01,WNW,299,1.0,10.0,97,0.00,,,0.01,,2013-08-22 14:02:00,
2013-08-22 10:11:00,71.0,70.0,30.01,WNW,299,1.0,10.0,97,0.00,,,0.01,,2013-08-22 14:11:00,
2013-08-22 10:22:00,71.0,70.0,30.01,WNW,299,1.0,10.0,97,0.00,,,0.01,,2013-08-22 14:22:00,
2013-08-22 23:23:00,68.0,67.0,30.06,NW,311,1.0,2.0,96,-99.99,,,-99.99,,2013-08-23 03:23:00,
2013-08-22 23:55:00,67.0,66.0,30.06,NNW,336,0.0,2.0,96,-99.99,,,-99.99,,2013-08-23 03:55:00,